KATY/ATY METAR and TAF weather

Enter ICAO airport designator
Station Type Date Time Source
KATY METAR 2018/01/19 16:53 UTC NOAA

KATY 191653Z AUTO 27012KT 10SM CLR 02/M01 A2954 RMK AO2 SLP020 T00221011


Station Type Date Time Source
KATY Decoded METAR 2018/01/19 16:53 UTC NOAA

WATERTOWN MUNICIPAL AIRPORT, SD, United States (KATY) 44-54N 097-09W 532M
Jan 19, 2018 - 11:53 AM EST / 2018.01.19 1653 UTC
Wind: from the W (270 degrees) at 14 MPH (12 KT):0
Visibility: 10 mile(s):0
Sky conditions: clear
Temperature: 36.0 F (2.2 C)
Dew Point: 30.0 F (-1.1 C)
Relative Humidity: 78%
Pressure (altimeter): 29.54 in. Hg (1000 hPa)
ob: KATY 191653Z AUTO 27012KT 10SM CLR 02/M01 A2954 RMK AO2 SLP020 T00221011
cycle: 17

Station Type Date Time Source
KATY TAF 2018/01/19 18:24 UTC NOAA

TAF KATY 191723Z 1918/2018 27011KT P6SM OVC200
FM192300 VRB06KT P6SM OVC200


Example: see airport list